Time;durP1;ratioP1;P1;durP2;ratioP2;P2;SDS_P1;SDS_P2;PMS_P1;PMS_P2;Temp;Humidity;BMP_temperature;BMP_pressure;BME280_temperature;BME280_humidity;BME280_pressure;Samples;Min_cycle;Max_cycle;Signal;HPM_P1;HPM_P2
2022/11/08 00:02:24;;;;;;;4.60;1.50;;;;;;;13.18;80.20;100493.76;104951;1302;70931;-78
2022/11/08 00:04:54;;;;;;;4.80;1.50;;;;;;;13.17;80.26;100492.42;104826;1294;71137;-78
2022/11/08 00:15:37;;;;;;;4.60;1.30;;;;;;;13.15;80.25;100490.38;105019;1294;70450;-77
2022/11/08 00:18:05;;;;;;;4.60;1.50;;;;;;;13.14;80.19;100488.77;104912;1294;71956;-78
2022/11/08 00:20:33;;;;;;;5.10;1.30;;;;;;;13.12;80.32;100487.66;104897;1289;63049;-77
2022/11/08 00:23:00;;;;;;;4.30;1.20;;;;;;;13.11;80.26;100485.05;104916;1287;59065;-75
2022/11/08 00:25:27;;;;;;;4.20;1.30;;;;;;;13.10;80.27;100488.30;105058;1295;75007;-78
2022/11/08 00:27:54;;;;;;;4.40;1.40;;;;;;;13.07;80.40;100479.88;104965;1297;71234;-78
2022/11/08 00:30:20;;;;;;;4.40;1.60;;;;;;;13.05;80.27;100481.03;104817;1297;72396;-77
2022/11/08 00:32:47;;;;;;;5.00;1.40;;;;;;;13.02;80.33;100486.55;104920;1297;64077;-77
2022/11/08 00:35:14;;;;;;;6.60;1.60;;;;;;;12.98;80.55;100489.33;104994;1288;58993;-78
2022/11/08 00:37:40;;;;;;;6.10;1.40;;;;;;;12.94;80.61;100491.62;104743;1297;73192;-78
2022/11/08 00:40:07;;;;;;;6.00;1.50;;;;;;;12.88;80.86;100493.20;104826;1291;59128;-78
2022/11/08 00:42:34;;;;;;;5.30;1.50;;;;;;;12.81;81.30;100494.59;104866;1288;72014;-77
2022/11/08 00:45:00;;;;;;;4.70;1.40;;;;;;;12.75;81.35;100490.90;104994;1287;59004;-78
2022/11/08 00:47:27;;;;;;;6.80;1.60;;;;;;;12.70;81.54;100491.60;104997;1295;60914;-78
2022/11/08 00:49:54;;;;;;;6.00;1.90;;;;;;;12.63;81.98;100486.89;104882;1294;59744;-77
2022/11/08 00:52:20;;;;;;;6.50;2.00;;;;;;;12.57;82.13;100490.78;104897;1290;71301;-78
2022/11/08 00:54:47;;;;;;;6.50;1.80;;;;;;;12.52;82.26;100488.23;104888;1295;59501;-78
2022/11/08 00:57:13;;;;;;;4.90;1.70;;;;;;;12.47;82.61;100489.02;104961;1294;59136;-78
2022/11/08 00:59:40;;;;;;;6.70;1.90;;;;;;;12.45;82.91;100492.85;104917;1295;59177;-78
2022/11/08 01:02:06;;;;;;;6.00;1.70;;;;;;;12.43;82.82;100494.05;104779;1290;59834;-78
2022/11/08 01:04:33;;;;;;;5.40;2.00;;;;;;;12.40;83.08;100490.27;104932;1293;69987;-77
2022/11/08 01:06:59;;;;;;;5.00;1.40;;;;;;;12.40;83.12;100488.77;105244;1294;59232;-77
2022/11/08 01:09:26;;;;;;;6.10;1.70;;;;;;;12.40;83.22;100489.77;105377;1290;63237;-77
2022/11/08 01:11:52;;;;;;;6.10;1.50;;;;;;;12.43;83.30;100493.85;105421;1295;59246;-78
2022/11/08 01:14:19;;;;;;;4.50;1.50;;;;;;;12.48;83.14;100489.27;105438;1294;59263;-78
2022/11/08 01:16:46;;;;;;;4.70;1.40;;;;;;;12.53;82.84;100487.44;105344;1297;59329;-78
2022/11/08 01:19:12;;;;;;;5.70;1.50;;;;;;;12.54;82.76;100485.15;105495;1287;72230;-78
2022/11/08 01:21:39;;;;;;;4.90;1.60;;;;;;;12.57;82.51;100483.80;105411;1287;62509;-78
2022/11/08 01:24:06;;;;;;;4.90;1.50;;;;;;;12.56;82.46;100486.55;103513;1300;62295;-78
2022/11/08 01:26:32;;;;;;;4.50;1.50;;;;;;;12.54;82.41;100488.50;103975;1297;75120;-77
2022/11/08 01:28:59;;;;;;;7.80;1.80;;;;;;;12.52;82.29;100488.29;103559;1302;72668;-78
2022/11/08 01:31:29;;;;;;;6.70;1.60;;;;;;;12.50;82.30;100482.82;103399;1297;61349;-76
2022/11/08 01:33:59;;;;;;;5.20;1.70;;;;;;;12.47;82.43;100483.44;103602;1304;61279;-76
2022/11/08 01:36:27;;;;;;;6.40;1.70;;;;;;;12.43;82.60;100482.11;103512;1302;61426;-76
2022/11/08 01:38:55;;;;;;;5.20;1.30;;;;;;;12.39;82.69;100478.56;103447;1303;73144;-76
2022/11/08 01:41:23;;;;;;;5.70;1.70;;;;;;;12.35;82.95;100480.77;103161;1300;68561;-75
2022/11/08 01:43:58;;;;;;;6.90;1.90;;;;;;;12.30;82.92;100479.34;103735;1302;70286;-76
2022/11/08 01:46:35;;;;;;;6.70;2.00;;;;;;;12.26;83.11;100473.29;103819;1297;61184;-76
2022/11/08 01:49:21;;;;;;;5.50;1.70;;;;;;;12.21;83.44;100473.16;103827;1305;61319;-76
2022/11/08 01:52:09;;;;;;;5.80;1.80;;;;;;;12.16;83.67;100469.56;103619;1301;73620;-77
2022/11/08 01:54:55;;;;;;;7.50;1.60;;;;;;;12.11;83.74;100468.94;103894;1294;69626;-77
2022/11/08 01:57:27;;;;;;;6.00;1.60;;;;;;;12.05;84.20;100472.86;103576;1287;71179;-76
2022/11/08 01:59:59;;;;;;;5.10;1.50;;;;;;;12.00;84.52;100476.57;103408;1301;61808;-76
2022/11/08 02:02:27;;;;;;;6.20;2.10;;;;;;;11.98;84.49;100470.20;103583;1304;60921;-76
2022/11/08 02:04:54;;;;;;;4.10;1.50;;;;;;;11.95;84.16;100468.95;103750;1300;72479;-76
2022/11/08 02:07:21;;;;;;;5.50;1.80;;;;;;;11.90;84.48;100472.62;103653;1302;70194;-75
2022/11/08 02:09:48;;;;;;;6.10;1.30;;;;;;;11.84;84.62;100474.29;103774;1295;72865;-76
2022/11/08 02:12:19;;;;;;;4.70;1.50;;;;;;;11.79;84.78;100472.65;103631;1295;61273;-76
2022/11/08 02:14:46;;;;;;;9.50;2.10;;;;;;;11.74;84.88;100468.63;103771;1304;61389;-76
2022/11/08 02:17:13;;;;;;;4.20;1.50;;;;;;;11.69;85.14;100464.77;103492;1301;74718;-76
2022/11/08 02:19:48;;;;;;;6.00;1.80;;;;;;;11.65;85.21;100460.42;103523;1298;70266;-75
2022/11/08 02:22:34;;;;;;;5.00;1.70;;;;;;;11.59;85.33;100457.14;103640;1301;70427;-76
2022/11/08 02:25:01;;;;;;;4.70;1.50;;;;;;;11.53;85.60;100457.73;103526;1296;61930;-77
2022/11/08 02:27:28;;;;;;;7.10;1.70;;;;;;;11.48;85.60;100457.34;103667;1297;61284;-76
2022/11/08 02:29:55;;;;;;;4.80;1.70;;;;;;;11.43;86.16;100455.64;103310;1303;61150;-76
2022/11/08 02:32:23;;;;;;;7.10;1.90;;;;;;;11.38;86.24;100457.95;103595;1297;70208;-77
2022/11/08 02:34:56;;;;;;;8.20;1.80;;;;;;;11.33;86.74;100462.51;103642;1297;71200;-77
2022/11/08 02:37:25;;;;;;;7.60;2.10;;;;;;;11.29;86.97;100461.77;103640;1295;62091;-76
2022/11/08 02:39:51;;;;;;;4.80;1.90;;;;;;;11.25;87.10;100461.67;103665;1300;61318;-75
2022/11/08 02:42:19;;;;;;;7.70;2.30;;;;;;;11.22;87.20;100457.44;103956;1297;61708;-76
2022/11/08 02:44:46;;;;;;;6.70;2.00;;;;;;;11.18;87.47;100451.73;104121;1298;69796;-76
2022/11/08 02:47:14;;;;;;;5.40;1.50;;;;;;;11.14;87.72;100455.38;103392;1302;71166;-76
2022/11/08 02:49:41;;;;;;;5.90;1.80;;;;;;;11.10;87.46;100450.34;102985;1302;60773;-76
2022/11/08 02:52:08;;;;;;;8.40;1.90;;;;;;;11.06;87.89;100452.15;103766;1303;61341;-76
2022/11/08 02:54:34;;;;;;;8.60;2.20;;;;;;;11.01;87.93;100455.12;103639;1288;74708;-76
2022/11/08 02:57:01;;;;;;;7.40;2.20;;;;;;;10.97;88.23;100453.44;103582;1294;61368;-76
2022/11/08 02:59:28;;;;;;;9.70;2.00;;;;;;;10.95;88.40;100450.95;103353;1289;71531;-77
2022/11/08 03:01:54;;;;;;;7.40;1.90;;;;;;;10.93;88.35;100453.26;104118;1297;61739;-77
2022/11/08 03:04:21;;;;;;;8.20;1.80;;;;;;;10.92;88.48;100456.27;103432;1295;61279;-77
2022/11/08 03:06:47;;;;;;;7.00;1.70;;;;;;;10.89;88.72;100451.94;103314;1304;74202;-76
2022/11/08 03:09:14;;;;;;;6.40;2.10;;;;;;;10.87;88.67;100448.31;103485;1302;59944;-75
2022/11/08 03:11:41;;;;;;;8.90;2.00;;;;;;;10.84;88.73;100453.83;103422;1302;61355;-75
2022/11/08 03:14:07;;;;;;;7.00;1.80;;;;;;;10.81;88.89;100454.67;103898;1288;62840;-76
2022/11/08 03:16:34;;;;;;;6.80;1.80;;;;;;;10.78;89.01;100455.45;103439;1288;62871;-76
2022/11/08 03:19:00;;;;;;;9.10;2.20;;;;;;;10.74;89.34;100452.17;103238;1302;73179;-77
2022/11/08 03:21:27;;;;;;;6.00;2.00;;;;;;;10.72;89.45;100451.23;103886;1297;61385;-76
2022/11/08 03:23:53;;;;;;;5.50;1.80;;;;;;;10.68;89.59;100454.98;103506;1300;73165;-75
2022/11/08 03:26:20;;;;;;;7.50;2.20;;;;;;;10.66;89.78;100443.60;103495;1297;61691;-76
2022/11/08 03:28:47;;;;;;;6.20;2.20;;;;;;;10.63;89.90;100441.10;103658;1294;61414;-76
2022/11/08 03:31:13;;;;;;;4.70;2.10;;;;;;;10.60;90.44;100441.73;103565;1294;73136;-75
2022/11/08 03:33:40;;;;;;;4.80;1.80;;;;;;;10.59;90.73;100440.33;103796;1303;69697;-76
2022/11/08 03:36:06;;;;;;;7.00;2.30;;;;;;;10.58;90.78;100437.17;103757;1295;61303;-76
2022/11/08 03:38:33;;;;;;;7.10;2.80;;;;;;;10.57;90.84;100441.00;104089;1301;64198;-77
2022/11/08 03:41:00;;;;;;;5.00;1.70;;;;;;;10.57;91.32;100440.70;103398;1303;61347;-77
2022/11/08 03:43:26;;;;;;;6.20;2.10;;;;;;;10.57;91.48;100436.95;103526;1302;61405;-77
2022/11/08 03:45:53;;;;;;;7.10;2.10;;;;;;;10.58;91.33;100437.38;103587;1297;70099;-76
2022/11/08 03:48:22;;;;;;;6.30;1.80;;;;;;;10.59;91.22;100442.03;103536;1302;61349;-76
2022/11/08 03:50:50;;;;;;;6.20;2.10;;;;;;;10.59;91.47;100444.39;103870;1294;61841;-76
2022/11/08 03:53:17;;;;;;;7.30;2.10;;;;;;;10.59;91.54;100442.77;103852;1302;61296;-77
2022/11/08 03:55:44;;;;;;;7.30;2.00;;;;;;;10.60;91.35;100446.14;103619;1289;75537;-77
2022/11/08 03:58:11;;;;;;;5.50;1.80;;;;;;;10.61;91.32;100446.40;104090;1297;69930;-77
2022/11/08 04:00:37;;;;;;;6.70;1.80;;;;;;;10.61;91.31;100441.63;103871;1294;71063;-76
2022/11/08 04:03:04;;;;;;;6.60;1.80;;;;;;;10.61;91.13;100439.30;103614;1304;61243;-76
2022/11/08 04:05:31;;;;;;;5.30;1.60;;;;;;;10.62;91.21;100441.59;103436;1302;61248;-76
2022/11/08 04:08:00;;;;;;;5.20;1.90;;;;;;;10.63;91.09;100436.50;103599;1304;74877;-75
2022/11/08 04:10:26;;;;;;;4.90;1.80;;;;;;;10.64;90.90;100430.63;103646;1304;69814;-76
2022/11/08 04:15:38;;;;;;;6.10;1.80;;;;;;;10.64;90.98;100431.33;103482;1296;61661;-76
2022/11/08 04:23:36;;;;;;;6.10;2.10;;;;;;;10.63;90.64;100427.48;103795;1301;72043;-78
2022/11/08 04:26:06;;;;;;;5.30;1.80;;;;;;;10.62;90.70;100427.40;103837;1301;72546;-78
2022/11/08 04:28:35;;;;;;;5.00;1.60;;;;;;;10.60;90.75;100428.80;104113;1297;61340;-77
2022/11/08 04:31:07;;;;;;;6.20;1.70;;;;;;;10.60;90.58;100425.73;103643;1303;60401;-77
2022/11/08 04:33:34;;;;;;;4.80;1.70;;;;;;;10.58;90.43;100427.56;104432;1297;75041;-77
2022/11/08 04:36:04;;;;;;;8.60;2.00;;;;;;;10.55;90.44;100438.43;104162;1295;69081;-77
2022/11/08 04:38:31;;;;;;;7.00;1.90;;;;;;;10.53;90.42;100430.06;104354;1295;72995;-77
2022/11/08 04:41:03;;;;;;;4.10;1.70;;;;;;;10.51;90.27;100431.02;103971;1297;61871;-76
2022/11/08 04:43:31;;;;;;;5.90;1.90;;;;;;;10.48;90.26;100427.83;104430;1301;61273;-78
2022/11/08 04:46:03;;;;;;;6.20;1.90;;;;;;;10.44;89.99;100428.50;103786;1297;74769;-78
2022/11/08 04:48:30;;;;;;;6.30;2.00;;;;;;;10.41;89.90;100424.41;104386;1288;69652;-78
2022/11/08 04:51:02;;;;;;;6.80;1.80;;;;;;;10.38;89.78;100421.16;103808;1295;72164;-76
2022/11/08 04:53:28;;;;;;;6.80;2.40;;;;;;;10.36;89.79;100420.19;103926;1303;61507;-77
2022/11/08 04:56:07;;;;;;;7.40;2.00;;;;;;;10.34;90.11;100419.58;103769;1299;61480;-78
2022/11/08 04:58:39;;;;;;;5.70;1.80;;;;;;;10.34;90.24;100424.03;103697;1304;73128;-76
2022/11/08 05:01:07;;;;;;;4.70;1.80;;;;;;;10.34;90.37;100421.30;103956;1304;69634;-76
2022/11/08 05:03:34;;;;;;;5.90;1.90;;;;;;;10.35;90.49;100424.75;103483;1295;73311;-77
2022/11/08 05:06:03;;;;;;;5.10;1.80;;;;;;;10.37;90.50;100420.67;103574;1301;61359;-77
2022/11/08 05:08:30;;;;;;;6.70;2.10;;;;;;;10.37;90.54;100420.06;104074;1300;61277;-77
2022/11/08 05:11:01;;;;;;;4.40;1.90;;;;;;;10.38;90.53;100417.89;103835;1301;73227;-76
2022/11/08 05:13:28;;;;;;;5.20;2.00;;;;;;;10.37;90.52;100415.30;103401;1302;69644;-77
2022/11/08 05:16:04;;;;;;;4.70;1.80;;;;;;;10.38;90.44;100409.76;104038;1294;71931;-76
2022/11/08 05:18:31;;;;;;;7.70;2.10;;;;;;;10.38;90.39;100411.71;104406;1299;61206;-77
2022/11/08 05:23:47;;;;;;;4.70;1.70;;;;;;;10.38;90.31;100410.59;103769;1296;74151;-76
2022/11/08 05:26:15;;;;;;;5.90;1.90;;;;;;;10.38;90.32;100406.18;104058;1295;69807;-76
2022/11/08 05:28:41;;;;;;;6.10;1.70;;;;;;;10.38;90.20;100401.96;103703;1300;70884;-76
2022/11/08 05:31:08;;;;;;;6.00;1.90;;;;;;;10.37;90.18;100404.20;103830;1300;61289;-76
2022/11/08 05:33:35;;;;;;;5.60;1.90;;;;;;;10.35;90.27;100403.29;103915;1301;61233;-76
2022/11/08 05:36:04;;;;;;;6.10;2.00;;;;;;;10.34;90.20;100405.66;103752;1294;73154;-75
2022/11/08 05:38:32;;;;;;;7.90;2.00;;;;;;;10.31;90.17;100405.50;104271;1296;71398;-77
2022/11/08 05:41:03;;;;;;;6.50;1.90;;;;;;;10.27;90.19;100399.69;103761;1303;72956;-76
2022/11/08 05:43:30;;;;;;;3.80;2.20;;;;;;;10.22;90.32;100399.69;103993;1296;61334;-72
2022/11/08 05:45:56;;;;;;;7.70;2.60;;;;;;;10.17;90.63;100399.09;103909;1297;60395;-72
2022/11/08 05:48:23;;;;;;;7.30;2.30;;;;;;;10.11;90.50;100390.05;103836;1295;61346;-73
2022/11/08 05:50:49;;;;;;;5.90;2.20;;;;;;;10.05;90.49;100390.58;103332;1295;61315;-72
2022/11/08 05:53:16;;;;;;;7.20;2.30;;;;;;;9.97;90.80;100388.50;103909;1293;61394;-73
2022/11/08 05:55:43;;;;;;;4.50;2.00;;;;;;;9.91;90.99;100385.89;104012;1298;60676;-73
2022/11/08 05:58:10;;;;;;;5.40;2.20;;;;;;;9.82;90.98;100385.16;103670;1297;61309;-73
2022/11/08 06:00:36;;;;;;;6.90;2.20;;;;;;;9.74;90.95;100380.39;103500;1295;61292;-73
2022/11/08 06:03:04;;;;;;;7.10;2.60;;;;;;;9.66;91.40;100378.30;104045;1296;61104;-72
2022/11/08 06:05:31;;;;;;;6.20;2.30;;;;;;;9.57;91.68;100375.09;103874;1304;72071;-73
2022/11/08 06:07:58;;;;;;;6.90;2.30;;;;;;;9.49;92.01;100379.61;103532;1302;60754;-72
2022/11/08 06:10:25;;;;;;;6.30;2.10;;;;;;;9.43;92.33;100378.62;103611;1288;61321;-73
2022/11/08 06:12:51;;;;;;;5.40;2.10;;;;;;;9.39;92.67;100377.67;104690;1294;73784;-73
2022/11/08 06:15:18;;;;;;;5.70;2.20;;;;;;;9.38;93.13;100378.77;103390;1295;61265;-72
2022/11/08 06:17:45;;;;;;;7.80;2.60;;;;;;;9.41;93.96;100373.11;103896;1286;71485;-73
2022/11/08 06:20:14;;;;;;;5.80;2.20;;;;;;;9.43;94.21;100372.17;103662;1295;61423;-73
2022/11/08 06:22:42;;;;;;;4.90;2.80;;;;;;;9.45;94.08;100374.72;103882;1295;62685;-72
2022/11/08 06:25:09;;;;;;;6.80;2.70;;;;;;;9.49;94.75;100378.67;104146;1304;73384;-73
2022/11/08 06:27:36;;;;;;;6.20;2.50;;;;;;;9.54;95.04;100380.70;103491;1300;70907;-73
2022/11/08 06:30:04;;;;;;;6.90;2.80;;;;;;;9.60;95.13;100379.84;103802;1296;61280;-73
2022/11/08 06:32:30;;;;;;;6.90;3.20;;;;;;;9.67;94.84;100381.70;104165;1298;61318;-72
2022/11/08 06:34:57;;;;;;;6.40;2.70;;;;;;;9.73;94.44;100381.79;104097;1298;59476;-72
2022/11/08 06:37:23;;;;;;;5.70;2.60;;;;;;;9.77;94.14;100381.96;103673;1295;61315;-72
2022/11/08 06:39:50;;;;;;;7.20;2.70;;;;;;;9.81;94.03;100385.73;104093;1295;70851;-72
2022/11/08 06:42:16;;;;;;;8.90;2.70;;;;;;;9.85;94.00;100388.25;103814;1305;61274;-72
2022/11/08 06:44:43;;;;;;;5.80;2.10;;;;;;;9.91;93.68;100385.83;103332;1296;61256;-73
2022/11/08 06:47:09;;;;;;;5.20;2.30;;;;;;;9.96;93.55;100387.77;102769;1302;61314;-73
2022/11/08 06:49:36;;;;;;;6.80;2.40;;;;;;;10.01;93.10;100386.27;102802;1301;61373;-73
2022/11/08 06:52:03;;;;;;;7.50;2.60;;;;;;;10.05;92.87;100387.23;103366;1294;70162;-73
2022/11/08 06:54:30;;;;;;;10.30;2.80;;;;;;;10.09;92.82;100389.60;103010;1304;74320;-73
2022/11/08 06:56:59;;;;;;;7.70;3.20;;;;;;;10.12;92.54;100392.77;102689;1302;59279;-73
2022/11/08 06:59:26;;;;;;;8.00;2.60;;;;;;;10.16;92.53;100393.53;103347;1302;61245;-73
2022/11/08 07:01:53;;;;;;;5.60;2.70;;;;;;;10.19;92.33;100396.02;102999;1295;73520;-72
2022/11/08 07:04:20;;;;;;;6.20;2.50;;;;;;;10.21;92.09;100397.13;103152;1297;71501;-72
2022/11/08 07:06:46;;;;;;;7.30;2.90;;;;;;;10.23;91.97;100395.35;103006;1285;61306;-72
2022/11/08 07:09:13;;;;;;;9.90;2.80;;;;;;;10.25;91.83;100393.71;103324;1302;61388;-72
2022/11/08 07:11:39;;;;;;;6.80;2.50;;;;;;;10.27;91.95;100385.95;102913;1302;61450;-73
2022/11/08 07:14:06;;;;;;;6.40;2.70;;;;;;;10.29;91.93;100384.65;102840;1304;74631;-72
2022/11/08 07:16:32;;;;;;;7.30;2.80;;;;;;;10.31;91.82;100386.90;102573;1295;61868;-73
2022/11/08 07:18:59;;;;;;;6.30;2.60;;;;;;;10.33;91.85;100385.18;103489;1295;67841;-74
2022/11/08 07:21:25;;;;;;;7.40;3.00;;;;;;;10.35;91.78;100387.33;102836;1302;61279;-74
2022/11/08 07:23:52;;;;;;;6.70;2.60;;;;;;;10.38;91.65;100381.65;102828;1302;61340;-72
2022/11/08 07:26:18;;;;;;;6.70;2.60;;;;;;;10.39;91.60;100383.27;102814;1304;61418;-73
2022/11/08 07:28:45;;;;;;;6.40;3.00;;;;;;;10.40;91.55;100382.29;102666;1305;62513;-73
2022/11/08 07:31:11;;;;;;;6.50;2.70;;;;;;;10.43;91.49;100382.11;103220;1294;61283;-72
2022/11/08 07:33:38;;;;;;;5.50;2.70;;;;;;;10.46;91.26;100384.39;102814;1297;61317;-73
2022/11/08 07:36:04;;;;;;;5.60;2.90;;;;;;;10.49;91.20;100386.11;102499;1301;61325;-72
2022/11/08 07:38:31;;;;;;;7.20;2.90;;;;;;;10.52;91.14;100383.70;103515;1297;61427;-72
2022/11/08 07:41:00;;;;;;;6.40;2.70;;;;;;;10.54;90.95;100389.48;102704;1305;61356;-72
2022/11/08 07:43:27;;;;;;;9.50;2.90;;;;;;;10.52;90.83;100383.65;102957;1295;71363;-73
2022/11/08 07:45:59;;;;;;;7.20;2.50;;;;;;;10.51;90.82;100379.98;102688;1294;61303;-72
2022/11/08 07:48:28;;;;;;;7.70;2.80;;;;;;;10.49;90.94;100379.50;103116;1304;61283;-73
2022/11/08 07:50:54;;;;;;;7.50;3.20;;;;;;;10.47;90.96;100379.34;102852;1301;73100;-72
2022/11/08 07:53:21;;;;;;;6.50;2.70;;;;;;;10.46;91.12;100376.77;103142;1302;71334;-75
2022/11/08 07:55:48;;;;;;;7.70;2.60;;;;;;;10.48;91.14;100374.49;102819;1303;72757;-73
2022/11/08 07:58:15;;;;;;;6.00;3.00;;;;;;;10.49;91.42;100367.59;102645;1297;61269;-73
2022/11/08 08:00:44;;;;;;;6.70;2.80;;;;;;;10.53;91.21;100366.58;102883;1302;61414;-71
2022/11/08 08:03:12;;;;;;;9.10;3.00;;;;;;;10.57;91.24;100365.88;103089;1291;73117;-72
2022/11/08 08:05:44;;;;;;;6.40;2.80;;;;;;;10.63;91.26;100367.48;103052;1302;70565;-72
2022/11/08 08:08:12;;;;;;;6.30;2.50;;;;;;;10.69;91.12;100365.96;102721;1297;73326;-71
2022/11/08 08:10:40;;;;;;;5.20;2.30;;;;;;;10.74;91.16;100360.88;102987;1302;61885;-72
2022/11/08 08:13:08;;;;;;;7.10;2.70;;;;;;;10.80;90.98;100351.18;103299;1294;61416;-72
2022/11/08 08:15:34;;;;;;;5.70;2.20;;;;;;;10.85;90.79;100341.86;103023;1296;74563;-72
2022/11/08 08:18:03;;;;;;;5.90;2.40;;;;;;;10.93;90.96;100338.04;103218;1294;69124;-72
2022/11/08 08:20:30;;;;;;;4.70;2.10;;;;;;;11.04;91.16;100334.00;103134;1295;71827;-72
2022/11/08 08:22:58;;;;;;;5.10;2.00;;;;;;;11.16;91.13;100337.10;105488;1294;60612;-72
2022/11/08 08:25:26;;;;;;;5.70;2.10;;;;;;;11.29;90.95;100329.63;105478;1295;59975;-72
2022/11/08 08:27:54;;;;;;;5.80;1.90;;;;;;;11.47;90.61;100332.91;105463;1290;74740;-72
2022/11/08 08:30:22;;;;;;;4.20;1.90;;;;;;;11.65;90.31;100328.77;105444;1296;71271;-72
2022/11/08 08:32:49;;;;;;;5.00;2.60;;;;;;;11.83;89.41;100325.45;104328;1288;71099;-72
2022/11/08 08:35:36;;;;;;;6.50;2.00;;;;;;;12.00;88.73;100327.91;103077;1297;64219;-72
2022/11/08 08:38:04;;;;;;;4.50;1.70;;;;;;;12.16;88.06;100319.42;103404;1297;60028;-72
2022/11/08 08:40:33;;;;;;;5.80;2.00;;;;;;;12.28;87.34;100309.75;103426;1302;73169;-72
2022/11/08 08:43:00;;;;;;;4.00;1.20;;;;;;;12.37;86.48;100304.62;102868;1301;69742;-73
2022/11/08 08:45:26;;;;;;;6.10;1.90;;;;;;;12.46;86.13;100301.72;103001;1302;72724;-72
2022/11/08 08:47:54;;;;;;;4.40;1.60;;;;;;;12.55;85.84;100300.45;102822;1300;61855;-72
2022/11/08 08:50:22;;;;;;;5.30;1.60;;;;;;;12.67;85.55;100296.58;103616;1302;61225;-72
2022/11/08 08:52:48;;;;;;;4.60;1.50;;;;;;;12.81;84.08;100289.14;103614;1288;73759;-72
2022/11/08 08:55:16;;;;;;;4.90;1.50;;;;;;;12.92;82.85;100283.52;103972;1295;61424;-72
2022/11/08 08:57:44;;;;;;;5.00;1.50;;;;;;;13.01;82.40;100276.46;102822;1304;70218;-72
2022/11/08 09:00:12;;;;;;;5.60;1.80;;;;;;;13.15;82.32;100277.23;103132;1299;62219;-72
2022/11/08 09:03:04;;;;;;;4.60;1.20;;;;;;;13.26;81.32;100271.65;102818;1298;61475;-72
2022/11/08 09:05:31;;;;;;;4.20;1.50;;;;;;;13.29;79.88;100263.05;102968;1294;73646;-73
2022/11/08 09:07:58;;;;;;;4.40;1.20;;;;;;;13.33;79.61;100274.66;103045;1297;69383;-73
2022/11/08 09:10:25;;;;;;;4.70;1.90;;;;;;;13.34;79.52;100276.30;102583;1302;61401;-75
2022/11/08 09:12:51;;;;;;;5.80;1.40;;;;;;;13.37;79.77;100277.28;102632;1302;61296;-73
2022/11/08 09:15:18;;;;;;;4.20;1.50;;;;;;;13.42;79.69;100277.74;102630;1294;61282;-73
2022/11/08 09:17:45;;;;;;;4.20;1.80;;;;;;;13.48;79.49;100273.77;103010;1300;73129;-73
2022/11/08 09:20:13;;;;;;;4.80;1.40;;;;;;;13.53;79.75;100267.23;102855;1301;68603;-72
2022/11/08 09:22:39;;;;;;;4.40;1.20;;;;;;;13.60;79.54;100267.63;103019;1301;70473;-73
2022/11/08 09:25:06;;;;;;;4.00;1.60;;;;;;;13.66;79.22;100269.92;102968;1295;61388;-72
2022/11/08 09:27:32;;;;;;;2.70;0.90;;;;;;;13.69;79.12;100270.75;102914;1301;61280;-73
2022/11/08 09:29:59;;;;;;;4.90;1.30;;;;;;;13.67;78.70;100270.33;102630;1302;61271;-73
2022/11/08 09:32:28;;;;;;;5.40;1.30;;;;;;;13.68;78.64;100269.35;103020;1294;61316;-73
2022/11/08 09:35:15;;;;;;;3.60;1.20;;;;;;;13.69;78.46;100269.64;102395;1302;72586;-72
2022/11/08 09:37:41;;;;;;;3.60;1.10;;;;;;;13.67;78.19;100270.70;103250;1297;61315;-72
2022/11/08 09:40:19;;;;;;;4.50;1.10;;;;;;;13.64;77.91;100268.04;102600;1294;61289;-72
2022/11/08 09:43:01;;;;;;;4.20;1.00;;;;;;;13.66;77.97;100265.30;103456;1297;73456;-71
2022/11/08 09:45:36;;;;;;;4.50;1.30;;;;;;;13.72;77.72;100261.95;102611;1300;70462;-72
2022/11/08 09:48:06;;;;;;;4.00;1.30;;;;;;;13.81;77.42;100258.30;102580;1298;71538;-73
2022/11/08 09:50:44;;;;;;;4.00;1.30;;;;;;;13.86;76.83;100259.23;102841;1294;61770;-73
2022/11/08 09:53:13;;;;;;;4.70;1.40;;;;;;;13.94;76.62;100261.16;102808;1301;61720;-72
2022/11/08 09:55:57;;;;;;;4.40;1.10;;;;;;;13.97;75.97;100257.63;102899;1300;74792;-72
2022/11/08 09:58:37;;;;;;;3.50;1.00;;;;;;;14.04;75.53;100254.13;103051;1297;70056;-73
2022/11/08 10:01:04;;;;;;;3.70;1.20;;;;;;;14.15;75.31;100248.23;102935;1302;71455;-73
2022/11/08 10:03:30;;;;;;;3.50;1.10;;;;;;;14.28;75.08;100252.14;102890;1300;62248;-72
2022/11/08 10:06:17;;;;;;;3.30;1.10;;;;;;;14.36;74.34;100247.09;103008;1297;61249;-72
2022/11/08 10:09:09;;;;;;;4.90;1.00;;;;;;;14.45;73.42;100250.31;102912;1294;74785;-72
2022/11/08 10:11:42;;;;;;;4.50;1.50;;;;;;;14.55;72.39;100246.19;103267;1301;69855;-72
2022/11/08 10:14:23;;;;;;;3.30;1.10;;;;;;;14.66;71.78;100242.00;102663;1302;71101;-73
2022/11/08 10:17:20;;;;;;;4.20;1.10;;;;;;;14.81;71.08;100241.72;103133;1297;62515;-72
2022/11/08 10:20:05;;;;;;;3.10;1.00;;;;;;;14.96;70.18;100231.15;102473;1297;61233;-72
2022/11/08 10:22:48;;;;;;;2.40;0.90;;;;;;;15.14;69.88;100232.72;102656;1302;74179;-72
2022/11/08 10:25:35;;;;;;;2.40;0.90;;;;;;;15.31;68.83;100222.84;102892;1301;69947;-71
2022/11/08 10:28:05;;;;;;;3.80;1.00;;;;;;;15.49;68.38;100221.76;102772;1294;70477;-72
2022/11/08 10:30:35;;;;;;;3.30;1.10;;;;;;;15.59;67.22;100219.13;102834;1302;60508;-73
2022/11/08 10:33:17;;;;;;;3.20;0.90;;;;;;;15.66;66.45;100216.30;102550;1302;61235;-73
2022/11/08 10:36:14;;;;;;;3.80;1.20;;;;;;;15.75;64.59;100216.00;102756;1297;75598;-73
2022/11/08 10:39:08;;;;;;;2.40;0.80;;;;;;;15.88;62.87;100213.31;103596;1294;72553;-72
2022/11/08 10:42:12;;;;;;;3.50;0.80;;;;;;;15.98;60.45;100203.50;102629;1302;70517;-73
2022/11/08 10:44:40;;;;;;;2.80;0.80;;;;;;;16.14;59.66;100196.78;102980;1302;61631;-72
2022/11/08 10:47:22;;;;;;;4.80;0.80;;;;;;;16.28;58.75;100188.62;102732;1301;61206;-72
2022/11/08 10:49:48;;;;;;;3.80;0.90;;;;;;;16.41;57.98;100189.45;102812;1304;73215;-72
2022/11/08 10:52:34;;;;;;;4.00;0.90;;;;;;;16.54;57.76;100185.20;102787;1294;71306;-72
2022/11/08 10:55:00;;;;;;;3.00;0.80;;;;;;;16.68;56.81;100184.02;103397;1299;72797;-73
2022/11/08 10:57:27;;;;;;;2.30;0.80;;;;;;;16.80;56.56;100181.67;102478;1300;61970;-73
2022/11/08 10:59:55;;;;;;;3.70;0.80;;;;;;;16.97;56.21;100182.80;102934;1294;61267;-73
2022/11/08 11:02:22;;;;;;;2.50;0.70;;;;;;;17.04;55.69;100175.98;102874;1300;76010;-72
2022/11/08 11:04:50;;;;;;;2.50;0.80;;;;;;;17.16;55.47;100169.69;102615;1302;216760;-72
2022/11/08 11:07:35;;;;;;;4.30;0.80;;;;;;;17.26;54.64;100166.21;102678;1300;72932;-72
2022/11/08 11:10:23;;;;;;;2.10;0.70;;;;;;;17.31;54.81;100163.96;102352;1303;61873;-74
2022/11/08 11:13:04;;;;;;;2.70;1.00;;;;;;;17.42;54.22;100161.91;103725;1302;61394;-72
2022/11/08 11:15:33;;;;;;;2.00;0.80;;;;;;;17.55;53.87;100158.71;102368;1302;74340;-72
2022/11/08 11:18:00;;;;;;;3.00;1.00;;;;;;;17.66;53.81;100151.23;102897;1291;70869;-73
2022/11/08 11:20:27;;;;;;;3.80;0.90;;;;;;;17.78;53.58;100151.35;102774;1301;72676;-72
2022/11/08 11:22:54;;;;;;;2.60;0.90;;;;;;;17.86;53.26;100153.42;102654;1304;61297;-72
2022/11/08 11:25:22;;;;;;;2.40;0.80;;;;;;;17.84;52.86;100151.33;102419;1302;61633;-72
2022/11/08 11:27:53;;;;;;;3.50;0.80;;;;;;;17.84;52.50;100152.73;102965;1294;75646;-72
2022/11/08 11:30:30;;;;;;;2.90;0.70;;;;;;;17.95;52.10;100152.45;103990;1303;69690;-72
2022/11/08 11:33:03;;;;;;;3.20;0.90;;;;;;;18.20;52.02;100149.92;102489;1304;71645;-71
2022/11/08 11:35:41;;;;;;;2.20;0.70;;;;;;;18.22;51.04;100155.42;102803;1300;61322;-72
2022/11/08 11:38:17;;;;;;;2.90;0.80;;;;;;;18.22;51.55;100152.04;102781;1302;61295;-72
2022/11/08 11:40:45;;;;;;;2.90;0.90;;;;;;;18.23;51.31;100152.33;103101;1301;74687;-71
2022/11/08 11:43:19;;;;;;;3.10;0.70;;;;;;;18.35;51.67;100157.90;102200;1305;69930;-71
2022/11/08 11:46:03;;;;;;;2.30;0.70;;;;;;;18.39;51.61;100154.67;102631;1300;72878;-73
2022/11/08 11:48:35;;;;;;;2.50;0.80;;;;;;;18.33;51.13;100151.34;103519;1296;61338;-72